sensor_id;sensor_type;location;lat;lon;timestamp;pressure;altitude;pressure_sealevel;temperature;humidity
72570;BME280;60594;50.204;8.844;2023-04-28T00:00:53;99832.97;;;11.34;74.42
72570;BME280;60594;50.204;8.844;2023-04-28T00:03:19;99831.84;;;11.36;74.99
72570;BME280;60594;50.204;8.844;2023-04-28T00:05:46;99826.78;;;11.43;75.24
72570;BME280;60594;50.204;8.844;2023-04-28T00:08:13;99827.22;;;11.38;76.44
72570;BME280;60594;50.204;8.844;2023-04-28T00:10:39;99826.38;;;11.38;75.81
72570;BME280;60594;50.204;8.844;2023-04-28T00:13:06;99826.63;;;11.35;75.94
72570;BME280;60594;50.204;8.844;2023-04-28T00:15:32;99819.63;;;11.43;74.94
72570;BME280;60594;50.204;8.844;2023-04-28T00:17:58;99815.09;;;11.34;76.77
72570;BME280;60594;50.204;8.844;2023-04-28T00:20:25;99814.25;;;11.24;77.46
72570;BME280;60594;50.204;8.844;2023-04-28T00:22:51;99802.72;;;11.14;78.16
72570;BME280;60594;50.204;8.844;2023-04-28T00:25:18;99800.06;;;11.24;78.27
72570;BME280;60594;50.204;8.844;2023-04-28T00:27:44;99803.25;;;11.08;76.76
72570;BME280;60594;50.204;8.844;2023-04-28T00:30:11;99788.28;;;10.77;77.63
72570;BME280;60594;50.204;8.844;2023-04-28T00:32:37;99777.75;;;10.76;78.35
72570;BME280;60594;50.204;8.844;2023-04-28T00:35:04;99775.16;;;10.95;80.92
72570;BME280;60594;50.204;8.844;2023-04-28T00:37:35;99762.84;;;11.13;77.46
72570;BME280;60594;50.204;8.844;2023-04-28T00:40:03;99761.84;;;11.14;77.67
72570;BME280;60594;50.204;8.844;2023-04-28T00:42:30;99764.38;;;11.06;77.17
72570;BME280;60594;50.204;8.844;2023-04-28T00:44:56;99771.84;;;11.12;76.88
72570;BME280;60594;50.204;8.844;2023-04-28T00:47:23;99768.19;;;11.22;74.66
72570;BME280;60594;50.204;8.844;2023-04-28T00:49:51;99760.06;;;11.24;75.05
72570;BME280;60594;50.204;8.844;2023-04-28T00:52:18;99774.69;;;11.29;75.70
72570;BME280;60594;50.204;8.844;2023-04-28T00:54:44;99766.13;;;11.26;76.15
72570;BME280;60594;50.204;8.844;2023-04-28T00:57:13;99764.53;;;11.23;75.38
72570;BME280;60594;50.204;8.844;2023-04-28T00:59:39;99757.09;;;11.17;76.09
72570;BME280;60594;50.204;8.844;2023-04-28T01:02:06;99761.19;;;11.21;75.55
72570;BME280;60594;50.204;8.844;2023-04-28T01:04:32;99750.91;;;11.17;74.65
72570;BME280;60594;50.204;8.844;2023-04-28T01:07:00;99757.94;;;11.18;76.50
72570;BME280;60594;50.204;8.844;2023-04-28T01:09:27;99739.97;;;11.10;74.91
72570;BME280;60594;50.204;8.844;2023-04-28T01:11:55;99748.66;;;11.12;76.49
72570;BME280;60594;50.204;8.844;2023-04-28T01:14:41;99737.44;;;11.09;75.93
72570;BME280;60594;50.204;8.844;2023-04-28T01:17:09;99740.50;;;11.04;77.26
72570;BME280;60594;50.204;8.844;2023-04-28T01:19:36;99740.97;;;11.09;78.23
72570;BME280;60594;50.204;8.844;2023-04-28T01:22:03;99733.38;;;11.14;78.85
72570;BME280;60594;50.204;8.844;2023-04-28T01:24:29;99718.78;;;11.09;78.17
72570;BME280;60594;50.204;8.844;2023-04-28T01:27:00;99717.94;;;11.18;79.16
72570;BME280;60594;50.204;8.844;2023-04-28T01:29:28;99723.00;;;11.21;79.24
72570;BME280;60594;50.204;8.844;2023-04-28T01:31:54;99718.25;;;11.24;78.46
72570;BME280;60594;50.204;8.844;2023-04-28T01:34:21;99720.91;;;11.24;78.64
72570;BME280;60594;50.204;8.844;2023-04-28T01:36:47;99715.13;;;11.19;76.77
72570;BME280;60594;50.204;8.844;2023-04-28T01:39:14;99717.66;;;11.21;77.20
72570;BME280;60594;50.204;8.844;2023-04-28T01:41:41;99708.38;;;11.15;76.19
72570;BME280;60594;50.204;8.844;2023-04-28T01:44:08;99716.25;;;11.17;77.92
72570;BME280;60594;50.204;8.844;2023-04-28T01:46:34;99709.09;;;11.17;78.84
72570;BME280;60594;50.204;8.844;2023-04-28T01:49:01;99709.09;;;11.17;78.82
72570;BME280;60594;50.204;8.844;2023-04-28T01:51:28;99704.31;;;11.21;78.19
72570;BME280;60594;50.204;8.844;2023-04-28T01:53:54;99702.38;;;11.23;78.75
72570;BME280;60594;50.204;8.844;2023-04-28T01:56:21;99705.72;;;11.15;79.56
72570;BME280;60594;50.204;8.844;2023-04-28T01:58:48;99688.59;;;11.18;77.64
72570;BME280;60594;50.204;8.844;2023-04-28T02:01:15;99694.34;;;11.04;79.11
72570;BME280;60594;50.204;8.844;2023-04-28T02:03:42;99690.84;;;11.03;80.67
72570;BME280;60594;50.204;8.844;2023-04-28T02:06:08;99694.03;;;10.97;79.58
72570;BME280;60594;50.204;8.844;2023-04-28T02:08:35;99682.78;;;10.75;79.65
72570;BME280;60594;50.204;8.844;2023-04-28T02:11:02;99684.44;;;10.66;81.05
72570;BME280;60594;50.204;8.844;2023-04-28T02:13:29;99676.63;;;10.84;78.95
72570;BME280;60594;50.204;8.844;2023-04-28T02:15:59;99690.41;;;10.89;79.34
72570;BME280;60594;50.204;8.844;2023-04-28T02:18:26;99692.94;;;11.00;78.39
72570;BME280;60594;50.204;8.844;2023-04-28T02:20:53;99689.81;;;10.95;81.12
72570;BME280;60594;50.204;8.844;2023-04-28T02:23:19;99692.63;;;10.84;83.06
72570;BME280;60594;50.204;8.844;2023-04-28T02:25:48;99695.03;;;10.96;82.01
72570;BME280;60594;50.204;8.844;2023-04-28T02:28:14;99691.97;;;11.01;80.18
72570;BME280;60594;50.204;8.844;2023-04-28T02:30:41;99695.97;;;10.76;82.80
72570;BME280;60594;50.204;8.844;2023-04-28T02:33:08;99696.25;;;10.83;83.95
72570;BME280;60594;50.204;8.844;2023-04-28T02:35:34;99711.41;;;10.82;82.86
72570;BME280;60594;50.204;8.844;2023-04-28T02:38:00;99714.19;;;10.81;82.53
72570;BME280;60594;50.204;8.844;2023-04-28T02:40:27;99702.81;;;10.69;83.59
72570;BME280;60594;50.204;8.844;2023-04-28T02:42:54;99691.72;;;10.64;85.08
72570;BME280;60594;50.204;8.844;2023-04-28T02:45:20;99690.69;;;10.46;88.62
72570;BME280;60594;50.204;8.844;2023-04-28T02:47:47;99681.22;;;10.32;90.11
72570;BME280;60594;50.204;8.844;2023-04-28T02:50:13;99681.00;;;9.94;89.99
72570;BME280;60594;50.204;8.844;2023-04-28T02:52:40;99683.28;;;9.99;89.82
72570;BME280;60594;50.204;8.844;2023-04-28T02:55:07;99686.78;;;9.99;91.23
72570;BME280;60594;50.204;8.844;2023-04-28T02:57:33;99691.78;;;10.13;89.13
72570;BME280;60594;50.204;8.844;2023-04-28T03:00:00;99673.28;;;10.12;88.56
72570;BME280;60594;50.204;8.844;2023-04-28T03:02:31;99672.63;;;10.19;91.47
72570;BME280;60594;50.204;8.844;2023-04-28T03:04:57;99666.59;;;10.17;91.99
72570;BME280;60594;50.204;8.844;2023-04-28T03:07:23;99659.50;;;10.27;92.87
72570;BME280;60594;50.204;8.844;2023-04-28T03:09:50;99654.56;;;10.23;94.45
72570;BME280;60594;50.204;8.844;2023-04-28T03:12:16;99654.59;;;10.32;92.57
72570;BME280;60594;50.204;8.844;2023-04-28T03:14:43;99651.38;;;10.29;91.74
72570;BME280;60594;50.204;8.844;2023-04-28T03:17:10;99643.09;;;10.22;93.62
72570;BME280;60594;50.204;8.844;2023-04-28T03:19:37;99653.41;;;10.16;93.76
72570;BME280;60594;50.204;8.844;2023-04-28T03:22:03;99667.19;;;10.21;94.50
72570;BME280;60594;50.204;8.844;2023-04-28T03:24:34;99660.97;;;10.11;94.84
72570;BME280;60594;50.204;8.844;2023-04-28T03:27:00;99661.81;;;10.11;93.87
72570;BME280;60594;50.204;8.844;2023-04-28T03:29:29;99659.16;;;10.11;93.59
72570;BME280;60594;50.204;8.844;2023-04-28T03:31:56;99645.75;;;10.02;95.58
72570;BME280;60594;50.204;8.844;2023-04-28T03:34:22;99633.03;;;10.05;95.40
72570;BME280;60594;50.204;8.844;2023-04-28T03:36:49;99632.53;;;10.11;96.50
72570;BME280;60594;50.204;8.844;2023-04-28T03:39:23;99627.72;;;10.05;94.46
72570;BME280;60594;50.204;8.844;2023-04-28T03:41:49;99626.09;;;10.14;93.90
72570;BME280;60594;50.204;8.844;2023-04-28T03:44:35;99639.44;;;10.23;93.95
72570;BME280;60594;50.204;8.844;2023-04-28T03:47:02;99634.09;;;10.23;92.79
72570;BME280;60594;50.204;8.844;2023-04-28T03:49:29;99598.66;;;10.02;94.60
72570;BME280;60594;50.204;8.844;2023-04-28T03:51:55;99625.41;;;10.21;96.31
72570;BME280;60594;50.204;8.844;2023-04-28T03:54:22;99622.06;;;10.29;95.49
72570;BME280;60594;50.204;8.844;2023-04-28T03:56:48;99612.97;;;10.31;95.11
72570;BME280;60594;50.204;8.844;2023-04-28T03:59:15;99613.38;;;10.36;95.01
72570;BME280;60594;50.204;8.844;2023-04-28T04:01:42;99621.66;;;10.24;95.80
72570;BME280;60594;50.204;8.844;2023-04-28T04:04:10;99602.56;;;10.28;96.88
72570;BME280;60594;50.204;8.844;2023-04-28T04:06:37;99596.81;;;10.23;96.92
72570;BME280;60594;50.204;8.844;2023-04-28T04:09:03;99590.41;;;10.35;96.60
72570;BME280;60594;50.204;8.844;2023-04-28T04:11:32;99576.81;;;10.38;95.77
72570;BME280;60594;50.204;8.844;2023-04-28T04:13:58;99569.69;;;10.39;96.86
72570;BME280;60594;50.204;8.844;2023-04-28T04:16:25;99571.63;;;10.37;96.72
72570;BME280;60594;50.204;8.844;2023-04-28T04:18:54;99579.06;;;10.33;95.43
72570;BME280;60594;50.204;8.844;2023-04-28T04:21:23;99589.84;;;10.02;90.57
72570;BME280;60594;50.204;8.844;2023-04-28T04:23:51;99581.94;;;10.11;91.90
72570;BME280;60594;50.204;8.844;2023-04-28T04:26:18;99585.75;;;10.18;93.23
72570;BME280;60594;50.204;8.844;2023-04-28T04:28:46;99578.72;;;10.17;94.40
72570;BME280;60594;50.204;8.844;2023-04-28T04:31:12;99584.78;;;10.29;94.37
72570;BME280;60594;50.204;8.844;2023-04-28T04:33:39;99576.66;;;10.30;91.69
72570;BME280;60594;50.204;8.844;2023-04-28T04:36:06;99586.75;;;10.36;94.44
72570;BME280;60594;50.204;8.844;2023-04-28T04:38:33;99584.41;;;10.43;94.22
72570;BME280;60594;50.204;8.844;2023-04-28T04:41:08;99582.28;;;10.37;94.17
72570;BME280;60594;50.204;8.844;2023-04-28T04:43:35;99583.41;;;10.34;92.66
72570;BME280;60594;50.204;8.844;2023-04-28T04:46:02;99581.84;;;10.32;92.14
72570;BME280;60594;50.204;8.844;2023-04-28T04:48:29;99584.06;;;10.27;92.60
72570;BME280;60594;50.204;8.844;2023-04-28T04:50:57;99587.59;;;10.27;93.93
72570;BME280;60594;50.204;8.844;2023-04-28T04:53:25;99589.97;;;10.30;93.04
72570;BME280;60594;50.204;8.844;2023-04-28T04:55:53;99613.91;;;10.21;92.58
72570;BME280;60594;50.204;8.844;2023-04-28T04:58:20;99616.44;;;9.92;93.32
72570;BME280;60594;50.204;8.844;2023-04-28T05:01:07;99632.09;;;9.65;95.47
72570;BME280;60594;50.204;8.844;2023-04-28T05:03:34;99640.63;;;9.59;97.17
72570;BME280;60594;50.204;8.844;2023-04-28T05:06:01;99628.81;;;9.52;99.57
72570;BME280;60594;50.204;8.844;2023-04-28T05:08:39;99625.81;;;9.46;100.00
72570;BME280;60594;50.204;8.844;2023-04-28T05:11:06;99617.44;;;9.50;100.00
72570;BME280;60594;50.204;8.844;2023-04-28T05:13:33;99615.97;;;9.57;100.00
72570;BME280;60594;50.204;8.844;2023-04-28T05:16:01;99627.56;;;9.56;100.00
72570;BME280;60594;50.204;8.844;2023-04-28T05:18:47;99625.34;;;9.61;99.63
72570;BME280;60594;50.204;8.844;2023-04-28T05:21:14;99612.50;;;9.66;100.00
72570;BME280;60594;50.204;8.844;2023-04-28T05:23:41;99618.09;;;9.63;100.00
72570;BME280;60594;50.204;8.844;2023-04-28T05:26:07;99618.28;;;9.71;100.00
72570;BME280;60594;50.204;8.844;2023-04-28T05:28:35;99622.06;;;9.69;100.00
72570;BME280;60594;50.204;8.844;2023-04-28T05:31:01;99615.50;;;9.52;99.41
72570;BME280;60594;50.204;8.844;2023-04-28T05:33:30;99616.75;;;9.28;100.00
72570;BME280;60594;50.204;8.844;2023-04-28T05:35:59;99604.34;;;9.38;100.00
72570;BME280;60594;50.204;8.844;2023-04-28T05:38:25;99607.34;;;9.44;100.00
72570;BME280;60594;50.204;8.844;2023-04-28T05:40:53;99612.06;;;9.41;100.00
72570;BME280;60594;50.204;8.844;2023-04-28T05:43:20;99605.81;;;9.51;100.00
72570;BME280;60594;50.204;8.844;2023-04-28T05:45:47;99611.94;;;9.42;100.00
72570;BME280;60594;50.204;8.844;2023-04-28T05:48:14;99601.38;;;9.52;100.00
72570;BME280;60594;50.204;8.844;2023-04-28T05:50:41;99601.66;;;9.58;100.00
72570;BME280;60594;50.204;8.844;2023-04-28T05:53:07;99604.50;;;9.66;100.00
72570;BME280;60594;50.204;8.844;2023-04-28T05:55:34;99598.25;;;9.67;100.00
72570;BME280;60594;50.204;8.844;2023-04-28T05:58:02;99595.97;;;9.63;100.00
72570;BME280;60594;50.204;8.844;2023-04-28T06:00:29;99605.97;;;9.70;100.00
72570;BME280;60594;50.204;8.844;2023-04-28T06:02:59;99610.44;;;9.70;100.00
72570;BME280;60594;50.204;8.844;2023-04-28T06:05:26;99612.50;;;9.66;100.00
72570;BME280;60594;50.204;8.844;2023-04-28T06:07:54;99600.34;;;9.73;100.00
72570;BME280;60594;50.204;8.844;2023-04-28T06:10:25;99608.19;;;9.75;100.00
72570;BME280;60594;50.204;8.844;2023-04-28T06:12:52;99612.97;;;9.71;100.00
72570;BME280;60594;50.204;8.844;2023-04-28T06:15:18;99619.84;;;9.74;100.00
72570;BME280;60594;50.204;8.844;2023-04-28T06:17:45;99634.56;;;9.78;100.00
72570;BME280;60594;50.204;8.844;2023-04-28T06:20:12;99635.28;;;9.80;100.00
72570;BME280;60594;50.204;8.844;2023-04-28T06:22:39;99640.59;;;9.80;100.00
72570;BME280;60594;50.204;8.844;2023-04-28T06:25:07;99645.06;;;9.79;100.00
72570;BME280;60594;50.204;8.844;2023-04-28T06:27:46;99644.66;;;9.54;100.00
72570;BME280;60594;50.204;8.844;2023-04-28T06:30:17;99640.22;;;9.43;100.00
72570;BME280;60594;50.204;8.844;2023-04-28T06:32:47;99640.88;;;9.56;100.00
72570;BME280;60594;50.204;8.844;2023-04-28T06:35:15;99638.84;;;9.69;100.00
72570;BME280;60594;50.204;8.844;2023-04-28T06:37:42;99637.09;;;9.79;100.00
72570;BME280;60594;50.204;8.844;2023-04-28T06:40:09;99641.44;;;9.80;100.00
72570;BME280;60594;50.204;8.844;2023-04-28T06:42:41;99645.34;;;9.76;100.00
72570;BME280;60594;50.204;8.844;2023-04-28T06:45:11;99646.00;;;9.69;100.00
72570;BME280;60594;50.204;8.844;2023-04-28T06:48:03;99634.13;;;9.73;100.00
72570;BME280;60594;50.204;8.844;2023-04-28T06:50:30;99625.78;;;9.66;100.00
72570;BME280;60594;50.204;8.844;2023-04-28T06:52:57;99633.13;;;9.74;100.00
72570;BME280;60594;50.204;8.844;2023-04-28T06:55:25;99620.69;;;9.74;100.00
72570;BME280;60594;50.204;8.844;2023-04-28T06:57:52;99624.78;;;9.78;100.00
72570;BME280;60594;50.204;8.844;2023-04-28T07:00:19;99633.00;;;9.75;100.00
72570;BME280;60594;50.204;8.844;2023-04-28T07:02:46;99612.84;;;9.73;100.00
72570;BME280;60594;50.204;8.844;2023-04-28T07:05:13;99601.94;;;9.76;100.00
72570;BME280;60594;50.204;8.844;2023-04-28T07:07:40;99615.97;;;9.87;100.00
72570;BME280;60594;50.204;8.844;2023-04-28T07:10:07;99608.97;;;9.86;100.00
72570;BME280;60594;50.204;8.844;2023-04-28T07:12:36;99609.66;;;9.88;100.00
72570;BME280;60594;50.204;8.844;2023-04-28T07:15:03;99613.06;;;9.90;100.00
72570;BME280;60594;50.204;8.844;2023-04-28T07:17:32;99603.56;;;9.97;100.00
72570;BME280;60594;50.204;8.844;2023-04-28T07:19:58;99603.81;;;9.94;100.00
72570;BME280;60594;50.204;8.844;2023-04-28T07:22:25;99613.69;;;9.83;100.00
72570;BME280;60594;50.204;8.844;2023-04-28T07:24:52;99606.00;;;9.80;100.00
72570;BME280;60594;50.204;8.844;2023-04-28T07:27:19;99597.72;;;9.83;100.00
72570;BME280;60594;50.204;8.844;2023-04-28T07:29:45;99599.44;;;9.84;100.00
72570;BME280;60594;50.204;8.844;2023-04-28T07:32:12;99601.50;;;9.80;100.00
72570;BME280;60594;50.204;8.844;2023-04-28T07:34:40;99593.13;;;9.85;100.00
72570;BME280;60594;50.204;8.844;2023-04-28T07:37:07;99580.38;;;9.88;100.00
72570;BME280;60594;50.204;8.844;2023-04-28T07:39:35;99570.59;;;9.89;100.00
72570;BME280;60594;50.204;8.844;2023-04-28T07:42:02;99573.41;;;9.87;100.00
72570;BME280;60594;50.204;8.844;2023-04-28T07:44:29;99591.75;;;9.90;100.00
72570;BME280;60594;50.204;8.844;2023-04-28T07:47:01;99588.13;;;9.91;100.00
72570;BME280;60594;50.204;8.844;2023-04-28T07:49:30;99579.78;;;9.75;100.00
72570;BME280;60594;50.204;8.844;2023-04-28T07:51:57;99559.06;;;9.49;100.00
72570;BME280;60594;50.204;8.844;2023-04-28T07:54:23;99560.28;;;9.65;100.00
72570;BME280;60594;50.204;8.844;2023-04-28T07:56:50;99552.38;;;9.84;100.00
72570;BME280;60594;50.204;8.844;2023-04-28T07:59:19;99547.28;;;10.02;100.00
72570;BME280;60594;50.204;8.844;2023-04-28T08:01:46;99553.47;;;10.12;100.00
72570;BME280;60594;50.204;8.844;2023-04-28T08:04:13;99553.78;;;10.18;100.00
72570;BME280;60594;50.204;8.844;2023-04-28T08:06:40;99555.06;;;10.24;100.00
72570;BME280;60594;50.204;8.844;2023-04-28T08:09:07;99554.97;;;10.05;100.00
72570;BME280;60594;50.204;8.844;2023-04-28T08:11:34;99564.72;;;10.15;100.00
72570;BME280;60594;50.204;8.844;2023-04-28T08:14:01;99569.38;;;10.02;100.00
72570;BME280;60594;50.204;8.844;2023-04-28T08:16:29;99585.56;;;10.10;100.00
72570;BME280;60594;50.204;8.844;2023-04-28T08:18:57;99584.72;;;10.10;100.00
72570;BME280;60594;50.204;8.844;2023-04-28T08:21:27;99574.50;;;9.85;100.00
72570;BME280;60594;50.204;8.844;2023-04-28T08:23:54;99596.38;;;10.09;100.00
72570;BME280;60594;50.204;8.844;2023-04-28T08:26:23;99591.63;;;10.22;100.00
72570;BME280;60594;50.204;8.844;2023-04-28T08:28:51;99586.16;;;10.23;100.00
72570;BME280;60594;50.204;8.844;2023-04-28T08:31:18;99590.22;;;10.18;100.00
72570;BME280;60594;50.204;8.844;2023-04-28T08:33:45;99593.75;;;10.28;100.00
72570;BME280;60594;50.204;8.844;2023-04-28T08:36:14;99610.88;;;10.35;100.00
72570;BME280;60594;50.204;8.844;2023-04-28T08:38:40;99599.63;;;10.22;100.00
72570;BME280;60594;50.204;8.844;2023-04-28T08:41:08;99606.34;;;9.96;100.00
72570;BME280;60594;50.204;8.844;2023-04-28T08:43:35;99602.94;;;9.84;100.00
72570;BME280;60594;50.204;8.844;2023-04-28T08:46:05;99604.84;;;9.73;100.00
72570;BME280;60594;50.204;8.844;2023-04-28T08:48:41;99605.06;;;9.90;100.00
72570;BME280;60594;50.204;8.844;2023-04-28T08:51:15;99615.19;;;9.96;100.00
72570;BME280;60594;50.204;8.844;2023-04-28T08:53:53;99609.81;;;10.07;100.00
72570;BME280;60594;50.204;8.844;2023-04-28T08:56:20;99607.75;;;10.20;100.00
72570;BME280;60594;50.204;8.844;2023-04-28T08:58:51;99605.78;;;10.13;100.00
72570;BME280;60594;50.204;8.844;2023-04-28T09:01:19;99603.72;;;10.35;100.00
72570;BME280;60594;50.204;8.844;2023-04-28T09:03:45;99608.69;;;10.10;100.00
72570;BME280;60594;50.204;8.844;2023-04-28T09:06:14;99599.91;;;10.28;100.00
72570;BME280;60594;50.204;8.844;2023-04-28T09:08:41;99616.19;;;10.25;100.00
72570;BME280;60594;50.204;8.844;2023-04-28T09:11:11;99604.19;;;10.41;100.00
72570;BME280;60594;50.204;8.844;2023-04-28T09:13:40;99608.81;;;10.58;100.00
72570;BME280;60594;50.204;8.844;2023-04-28T09:16:07;99602.06;;;10.44;100.00
72570;BME280;60594;50.204;8.844;2023-04-28T09:18:34;99596.22;;;10.60;100.00
72570;BME280;60594;50.204;8.844;2023-04-28T09:21:03;99606.63;;;10.82;100.00
72570;BME280;60594;50.204;8.844;2023-04-28T09:23:29;99614.63;;;10.82;100.00
72570;BME280;60594;50.204;8.844;2023-04-28T09:26:04;99606.91;;;10.79;100.00
72570;BME280;60594;50.204;8.844;2023-04-28T09:28:34;99607.03;;;10.68;100.00
72570;BME280;60594;50.204;8.844;2023-04-28T09:31:05;99604.50;;;10.66;100.00
72570;BME280;60594;50.204;8.844;2023-04-28T09:33:59;99601.41;;;10.52;100.00
72570;BME280;60594;50.204;8.844;2023-04-28T09:36:27;99591.53;;;10.33;100.00
72570;BME280;60594;50.204;8.844;2023-04-28T09:38:57;99595.16;;;10.22;100.00
72570;BME280;60594;50.204;8.844;2023-04-28T09:41:38;99599.91;;;10.28;100.00
72570;BME280;60594;50.204;8.844;2023-04-28T09:44:14;99598.28;;;10.47;100.00
72570;BME280;60594;50.204;8.844;2023-04-28T09:46:42;99606.63;;;10.82;100.00
72570;BME280;60594;50.204;8.844;2023-04-28T09:49:12;99599.56;;;10.62;100.00
72570;BME280;60594;50.204;8.844;2023-04-28T09:51:40;99604.63;;;10.74;100.00
72570;BME280;60594;50.204;8.844;2023-04-28T09:54:07;99612.34;;;10.68;100.00
72570;BME280;60594;50.204;8.844;2023-04-28T09:56:34;99603.53;;;10.86;100.00
72570;BME280;60594;50.204;8.844;2023-04-28T09:59:05;99600.69;;;10.59;100.00
72570;BME280;60594;50.204;8.844;2023-04-28T10:01:39;99596.34;;;10.58;100.00
72570;BME280;60594;50.204;8.844;2023-04-28T10:04:08;99604.75;;;10.54;100.00
72570;BME280;60594;50.204;8.844;2023-04-28T10:06:37;99607.78;;;10.39;100.00
72570;BME280;60594;50.204;8.844;2023-04-28T10:09:05;99608.81;;;10.48;100.00
72570;BME280;60594;50.204;8.844;2023-04-28T10:11:32;99603.81;;;10.74;100.00
72570;BME280;60594;50.204;8.844;2023-04-28T10:14:00;99610.25;;;10.81;100.00
72570;BME280;60594;50.204;8.844;2023-04-28T10:16:29;99605.63;;;10.92;100.00
72570;BME280;60594;50.204;8.844;2023-04-28T10:18:56;99605.09;;;10.89;100.00
72570;BME280;60594;50.204;8.844;2023-04-28T10:21:23;99600.88;;;11.05;100.00
72570;BME280;60594;50.204;8.844;2023-04-28T10:27:01;99603.97;;;11.10;100.00
72570;BME280;60594;50.204;8.844;2023-04-28T10:29:29;99596.78;;;11.01;100.00
72570;BME280;60594;50.204;8.844;2023-04-28T10:32:15;99593.16;;;11.12;100.00
72570;BME280;60594;50.204;8.844;2023-04-28T10:34:43;99586.69;;;11.14;100.00
72570;BME280;60594;50.204;8.844;2023-04-28T10:37:09;99583.16;;;11.23;100.00
72570;BME280;60594;50.204;8.844;2023-04-28T10:39:36;99574.47;;;11.31;100.00
72570;BME280;60594;50.204;8.844;2023-04-28T10:42:03;99571.34;;;11.45;100.00
72570;BME280;60594;50.204;8.844;2023-04-28T10:47:00;99580.19;;;11.55;100.00
72570;BME280;60594;50.204;8.844;2023-04-28T10:50:03;99577.69;;;11.44;100.00
72570;BME280;60594;50.204;8.844;2023-04-28T10:55:26;99584.38;;;11.76;100.00
72570;BME280;60594;50.204;8.844;2023-04-28T11:00:46;99579.63;;;11.51;100.00
72570;BME280;60594;50.204;8.844;2023-04-28T11:03:47;99570.75;;;11.60;100.00
72570;BME280;60594;50.204;8.844;2023-04-28T11:08:54;99556.06;;;11.93;100.00
72570;BME280;60594;50.204;8.844;2023-04-28T11:11:26;99552.34;;;12.03;100.00
72570;BME280;60594;50.204;8.844;2023-04-28T11:14:29;99562.34;;;12.01;100.00
72570;BME280;60594;50.204;8.844;2023-04-28T11:16:54;99560.25;;;12.22;100.00
72570;BME280;60594;50.204;8.844;2023-04-28T11:19:27;99546.59;;;12.25;100.00
72570;BME280;60594;50.204;8.844;2023-04-28T11:21:56;99532.69;;;12.49;100.00
72570;BME280;60594;50.204;8.844;2023-04-28T11:24:24;99529.78;;;12.60;100.00
72570;BME280;60594;50.204;8.844;2023-04-28T11:26:52;99540.31;;;12.79;100.00
72570;BME280;60594;50.204;8.844;2023-04-28T11:29:39;99546.13;;;12.74;100.00
72570;BME280;60594;50.204;8.844;2023-04-28T11:32:08;99544.38;;;12.65;100.00
72570;BME280;60594;50.204;8.844;2023-04-28T11:34:35;99545.81;;;12.77;100.00
72570;BME280;60594;50.204;8.844;2023-04-28T11:37:03;99538.50;;;12.79;100.00
72570;BME280;60594;50.204;8.844;2023-04-28T11:39:52;99562.44;;;12.98;100.00
72570;BME280;60594;50.204;8.844;2023-04-28T11:42:19;99564.31;;;12.88;100.00
72570;BME280;60594;50.204;8.844;2023-04-28T11:44:50;99555.06;;;12.83;100.00
72570;BME280;60594;50.204;8.844;2023-04-28T11:47:31;99558.50;;;12.93;100.00
72570;BME280;60594;50.204;8.844;2023-04-28T11:49:59;99556.59;;;12.85;100.00
72570;BME280;60594;50.204;8.844;2023-04-28T11:52:26;99554.94;;;13.02;100.00
72570;BME280;60594;50.204;8.844;2023-04-28T11:54:54;99564.56;;;13.12;100.00
72570;BME280;60594;50.204;8.844;2023-04-28T11:57:21;99548.31;;;13.06;100.00
72570;BME280;60594;50.204;8.844;2023-04-28T11:59:49;99550.91;;;13.15;100.00
72570;BME280;60594;50.204;8.844;2023-04-28T12:02:23;99547.72;;;13.20;100.00
72570;BME280;60594;50.204;8.844;2023-04-28T12:04:51;99538.72;;;13.21;100.00
72570;BME280;60594;50.204;8.844;2023-04-28T12:07:19;99536.69;;;13.40;100.00
72570;BME280;60594;50.204;8.844;2023-04-28T12:09:48;99531.19;;;13.68;100.00
72570;BME280;60594;50.204;8.844;2023-04-28T12:12:34;99524.19;;;13.75;100.00
72570;BME280;60594;50.204;8.844;2023-04-28T12:15:03;99523.00;;;13.69;100.00
72570;BME280;60594;50.204;8.844;2023-04-28T12:17:35;99543.91;;;13.73;100.00
72570;BME280;60594;50.204;8.844;2023-04-28T12:20:08;99536.47;;;13.85;100.00
72570;BME280;60594;50.204;8.844;2023-04-28T12:22:46;99542.84;;;13.92;100.00
72570;BME280;60594;50.204;8.844;2023-04-28T12:25:15;99540.16;;;13.84;100.00
72570;BME280;60594;50.204;8.844;2023-04-28T12:28:02;99535.63;;;13.93;100.00
72570;BME280;60594;50.204;8.844;2023-04-28T12:30:30;99533.50;;;13.96;100.00
72570;BME280;60594;50.204;8.844;2023-04-28T12:32:57;99529.38;;;14.18;99.62
72570;BME280;60594;50.204;8.844;2023-04-28T12:35:26;99532.53;;;14.47;100.00
72570;BME280;60594;50.204;8.844;2023-04-28T12:37:53;99525.03;;;14.50;98.24
72570;BME280;60594;50.204;8.844;2023-04-28T12:40:21;99537.81;;;14.72;98.77
72570;BME280;60594;50.204;8.844;2023-04-28T12:42:48;99529.25;;;15.17;98.45
72570;BME280;60594;50.204;8.844;2023-04-28T12:45:16;99528.28;;;15.42;95.63
72570;BME280;60594;50.204;8.844;2023-04-28T12:47:43;99529.63;;;15.38;96.64
72570;BME280;60594;50.204;8.844;2023-04-28T12:50:09;99531.59;;;15.28;92.86
72570;BME280;60594;50.204;8.844;2023-04-28T12:52:36;99526.25;;;15.28;94.36
72570;BME280;60594;50.204;8.844;2023-04-28T12:55:03;99526.56;;;15.17;91.30
72570;BME280;60594;50.204;8.844;2023-04-28T12:57:31;99527.25;;;15.35;96.71
72570;BME280;60594;50.204;8.844;2023-04-28T12:59:57;99515.34;;;15.53;93.74
72570;BME280;60594;50.204;8.844;2023-04-28T13:02:24;99519.16;;;15.75;93.44
72570;BME280;60594;50.204;8.844;2023-04-28T13:04:50;99511.63;;;16.09;91.48
72570;BME280;60594;50.204;8.844;2023-04-28T13:07:18;99509.47;;;16.35;89.68
72570;BME280;60594;50.204;8.844;2023-04-28T13:09:44;99515.53;;;16.45;88.21
72570;BME280;60594;50.204;8.844;2023-04-28T13:12:12;99512.38;;;16.64;86.94
72570;BME280;60594;50.204;8.844;2023-04-28T13:14:38;99506.69;;;16.81;85.52
72570;BME280;60594;50.204;8.844;2023-04-28T13:17:05;99498.13;;;17.01;84.83
72570;BME280;60594;50.204;8.844;2023-04-28T13:19:31;99498.47;;;17.20;85.46